Valletta, Malta
Current Conditions -  °F | °C
As of 8:45 AM on Saturday 25 Oct 2014 (Local Time) from LMML Reporting Station
Few Clouds Few Clouds  
Wind Chill: 68°   Ceiling: Unl
Heat Index: 68°   Visibility: 6mi
Dew Point: 54°   Wind: 12mph
Humidity: 60%   Direction: 330°NNW
Pressure: 29.97"   Gusts: NA
Location:  35.91°N, 14.52°E
Report Text: LMML 250645Z 33010KT 9999 FEW040 20/12 Q1015 NOSIG
Loading
Personal Weather Stations






























Interactive Weather Map
Tropical Storm Tracking
New forecast layout! Learn more

10-Day Weather Forecast

Advertisements
Track Severe Weather on mobile